Terminal Aerodrome Forecast
Issued by NWS

Home | Current Version | Previous Version | Graphics & Text | Print | Product List | Glossary On
Versions: 1 2 3 4 5 6 7 8 9 10 11 12 13 14 15 16 17 18 19 20 21 22
000
FTUS43 KLOT 261459 AAA
TAFGYY
TAF AMD
KGYY 261459Z 2615/2712 22010KT P6SM SCT080 BKN250
     FM261800 19012KT P6SM SCT050 BKN250
     FM270100 17005KT P6SM SCT250=

USA.gov is the U.S. government's official web portal to all federal, state and local government web resources and services.